Time;durP1;ratioP1;P1;durP2;ratioP2;P2;SDS_P1;SDS_P2;PMS_P1;PMS_P2;Temp;Humidity;BMP_temperature;BMP_pressure;BME280_temperature;BME280_humidity;BME280_pressure;Samples;Min_cycle;Max_cycle;Signal;HPM_P1;HPM_P2
2021/12/14 00:00:17;;;;;;;18.77;14.90;;;8.50;99.90;;;;;;5010891;28;20103;-44
2021/12/14 00:02:44;;;;;;;15.68;14.07;;;8.40;99.90;;;;;;5010437;28;20042;-59
2021/12/14 00:05:13;;;;;;;18.83;13.63;;;8.40;99.90;;;;;;4976014;28;20165;-59
2021/12/14 00:07:41;;;;;;;17.02;15.30;;;8.40;99.90;;;;;;4992275;28;20148;-59
2021/12/14 00:10:28;;;;;;;16.67;14.40;;;8.40;99.90;;;;;;5011429;28;20045;-59
2021/12/14 00:13:03;;;;;;;16.45;14.75;;;8.30;99.90;;;;;;5010409;28;20583;-59
2021/12/14 00:15:30;;;;;;;19.02;14.65;;;8.30;99.90;;;;;;5010417;28;20046;-59
2021/12/14 00:18:00;;;;;;;16.63;14.20;;;8.30;99.90;;;;;;4992972;28;20046;-59
2021/12/14 00:20:36;;;;;;;15.90;13.95;;;8.30;99.90;;;;;;4976911;28;20066;-58
2021/12/14 00:25:36;;;;;;;17.70;14.93;;;8.30;99.90;;;;;;5010417;28;20058;-45
2021/12/14 00:28:15;;;;;;;15.88;14.18;;;8.30;99.90;;;;;;4993019;28;20461;-43
2021/12/14 00:30:43;;;;;;;17.67;14.18;;;8.30;99.90;;;;;;5010512;28;20049;-43
2021/12/14 00:33:14;;;;;;;16.90;15.18;;;8.30;99.90;;;;;;5010201;28;20046;-47
2021/12/14 00:35:41;;;;;;;17.25;15.40;;;8.30;99.90;;;;;;5010668;28;20049;-43
2021/12/14 00:38:10;;;;;;;17.55;15.10;;;8.40;99.90;;;;;;4992506;28;20049;-44
2021/12/14 00:40:41;;;;;;;17.58;15.68;;;8.40;99.90;;;;;;4977357;28;20053;-42
2021/12/14 00:43:08;;;;;;;17.83;15.27;;;8.40;99.90;;;;;;4976371;28;20058;-43
2021/12/14 00:45:38;;;;;;;17.63;15.73;;;8.40;99.90;;;;;;5010307;28;20567;-45
2021/12/14 00:48:06;;;;;;;17.00;15.25;;;8.40;99.90;;;;;;5009929;28;20131;-42
2021/12/14 00:50:34;;;;;;;19.27;16.52;;;8.40;99.90;;;;;;5010169;28;20042;-58
2021/12/14 00:53:00;;;;;;;18.27;16.08;;;8.40;99.90;;;;;;4991320;28;20054;-59
2021/12/14 00:55:32;;;;;;;20.35;17.17;;;8.40;99.90;;;;;;4992765;28;20405;-59
2021/12/14 00:57:59;;;;;;;;;;;8.40;99.90;;;;;;4976402;28;20065;-59
2021/12/14 01:00:34;;;;;;;20.35;16.75;;;8.40;99.90;;;;;;4991731;28;19922;-59
2021/12/14 01:03:03;;;;;;;20.42;18.17;;;8.40;99.90;;;;;;4991903;28;20053;-59
2021/12/14 01:05:37;;;;;;;20.20;17.33;;;8.40;99.90;;;;;;4975513;28;20104;-59
2021/12/14 01:08:08;;;;;;;21.00;18.30;;;8.40;99.90;;;;;;4991717;28;20058;-59
2021/12/14 01:10:40;;;;;;;23.30;18.92;;;8.40;99.90;;;;;;4976225;28;20057;-59
2021/12/14 01:13:09;;;;;;;21.60;19.35;;;8.40;99.90;;;;;;4991721;28;20053;-43
2021/12/14 01:21:09;;;;;;;21.50;19.17;;;8.40;99.90;;;;;;4992180;28;20057;-43
2021/12/14 01:23:37;;;;;;;29.52;20.65;;;8.40;99.90;;;;;;5010046;28;20405;-44
2021/12/14 01:26:19;;;;;;;21.55;18.85;;;8.40;99.90;;;;;;4992420;28;20046;-43
2021/12/14 01:28:46;;;;;;;22.02;19.55;;;8.50;99.90;;;;;;4976054;28;20076;-45
2021/12/14 01:31:25;;;;;;;22.95;20.50;;;8.50;99.90;;;;;;4943730;28;20125;-44
2021/12/14 01:33:56;;;;;;;21.30;19.10;;;8.50;99.90;;;;;;4992611;28;20050;-43
2021/12/14 01:36:42;;;;;;;23.08;20.15;;;8.50;99.90;;;;;;4959290;28;20054;-43
2021/12/14 01:39:46;;;;;;;23.27;19.35;;;8.50;99.90;;;;;;4975637;28;20401;-43
2021/12/14 01:42:15;;;;;;;21.55;19.25;;;8.50;99.90;;;;;;5008749;28;20076;-42
2021/12/14 01:44:46;;;;;;;23.80;20.15;;;8.50;99.90;;;;;;4991819;28;20108;-43
2021/12/14 01:47:19;;;;;;;24.10;21.30;;;8.40;99.90;;;;;;4958820;28;20058;-43
2021/12/14 01:50:40;;;;;;;22.27;19.95;;;8.40;99.90;;;;;;4939943;28;20058;-45
2021/12/14 01:53:14;;;;;;;22.98;20.45;;;8.40;99.90;;;;;;4986639;28;20179;-59
2021/12/14 01:55:50;;;;;;;24.00;20.02;;;8.50;99.90;;;;;;4972096;28;20046;-59
2021/12/14 01:58:18;;;;;;;23.17;20.10;;;8.40;99.90;;;;;;4984972;28;20054;-59
2021/12/14 02:00:53;;;;;;;22.67;20.08;;;8.40;99.90;;;;;;4991368;28;20520;-59
2021/12/14 02:03:20;;;;;;;25.25;21.10;;;8.40;99.90;;;;;;4975091;28;20060;-59
2021/12/14 02:05:50;;;;;;;22.73;20.10;;;8.50;99.90;;;;;;5011745;28;20072;-43
2021/12/14 02:08:23;;;;;;;22.42;19.98;;;8.50;99.90;;;;;;5012019;28;20436;-59
2021/12/14 02:10:52;;;;;;;25.08;21.20;;;8.40;99.90;;;;;;4963224;28;20516;-59
2021/12/14 02:13:30;;;;;;;28.80;19.85;;;8.40;99.90;;;;;;4979339;28;20050;-59
2021/12/14 02:15:58;;;;;;;23.42;21.00;;;8.50;99.90;;;;;;4979207;28;20082;-59
2021/12/14 02:18:28;;;;;;;24.55;21.55;;;8.40;99.90;;;;;;4946776;28;20077;-59
2021/12/14 02:20:58;;;;;;;23.88;21.13;;;8.40;99.90;;;;;;4994632;28;20141;-58
2021/12/14 02:23:25;;;;;;;27.15;21.55;;;8.40;99.90;;;;;;4978968;28;20069;-59
2021/12/14 02:25:54;;;;;;;24.77;21.45;;;8.50;99.90;;;;;;4978714;28;20058;-59
2021/12/14 02:28:21;;;;;;;23.17;20.67;;;8.50;99.90;;;;;;4978863;28;20058;-58
2021/12/14 02:30:52;;;;;;;23.88;20.42;;;8.40;99.90;;;;;;4979542;28;20053;-59
2021/12/14 02:33:31;;;;;;;24.17;21.02;;;8.40;99.90;;;;;;4979125;28;20042;-59
2021/12/14 02:36:01;;;;;;;26.25;21.48;;;8.40;99.90;;;;;;4995150;28;20107;-44
2021/12/14 02:38:27;;;;;;;26.05;22.10;;;8.40;99.90;;;;;;5011960;28;20046;-42
2021/12/14 02:40:59;;;;;;;26.42;21.98;;;8.40;99.90;;;;;;4978878;28;20453;-59
2021/12/14 02:43:39;;;;;;;26.38;22.42;;;8.40;99.90;;;;;;4995192;28;20054;-56
2021/12/14 02:46:11;;;;;;;27.20;22.75;;;8.40;99.90;;;;;;4978901;28;20041;-59
2021/12/14 02:48:41;;;;;;;;;;;8.40;99.90;;;;;;5013100;28;20488;-58
2021/12/14 02:51:30;;;;;;;25.42;22.15;;;8.40;99.90;;;;;;4978668;28;20296;-59
2021/12/14 02:54:04;;;;;;;25.63;22.23;;;8.40;99.90;;;;;;4978109;28;20397;-59
2021/12/14 02:56:32;;;;;;;26.55;23.27;;;8.40;99.90;;;;;;4978389;28;20053;-59
2021/12/14 02:59:06;;;;;;;27.20;21.83;;;8.40;99.90;;;;;;4994276;28;20055;-59
2021/12/14 03:01:34;;;;;;;27.23;24.27;;;8.40;99.90;;;;;;4962095;28;20054;-47
2021/12/14 03:04:06;;;;;;;25.90;22.42;;;8.40;99.90;;;;;;4977457;28;20086;-46
2021/12/14 03:06:44;;;;;;;28.85;23.05;;;8.40;99.90;;;;;;4992393;28;20553;-48
2021/12/14 03:09:34;;;;;;;27.85;22.92;;;8.40;99.90;;;;;;4977855;28;20046;-59
2021/12/14 03:12:14;;;;;;;30.58;23.20;;;8.40;99.90;;;;;;4962417;28;20233;-59
2021/12/14 03:14:54;;;;;;;30.05;24.17;;;8.40;99.90;;;;;;4977917;28;20057;-59
2021/12/14 03:17:20;;;;;;;30.35;23.38;;;8.40;99.90;;;;;;4992280;28;20076;-60
2021/12/14 03:20:02;;;;;;;28.83;24.08;;;8.40;99.90;;;;;;4977542;28;20049;-59
2021/12/14 03:22:35;;;;;;;27.40;23.02;;;8.40;99.90;;;;;;4977703;28;20050;-59
2021/12/14 03:25:03;;;;;;;31.40;24.73;;;8.40;99.90;;;;;;4994093;28;20085;-59
2021/12/14 03:27:29;;;;;;;28.15;24.42;;;8.30;99.90;;;;;;5011227;28;20050;-59
2021/12/14 03:29:57;;;;;;;29.85;24.73;;;8.40;99.90;;;;;;4977770;28;20536;-59
2021/12/14 03:32:26;;;;;;;31.25;25.20;;;8.40;99.90;;;;;;4993923;28;20057;-59
2021/12/14 03:34:52;;;;;;;34.60;26.65;;;8.40;99.90;;;;;;4978070;28;20616;-59
2021/12/14 03:37:23;;;;;;;33.03;26.55;;;8.40;99.90;;;;;;5009774;28;20057;-59
2021/12/14 03:39:59;;;;;;;32.00;27.38;;;8.40;99.90;;;;;;4960822;28;20050;-59
2021/12/14 03:42:36;;;;;;;34.80;27.30;;;8.40;99.90;;;;;;4993541;28;20105;-59
2021/12/14 03:45:14;;;;;;;32.90;27.05;;;8.30;99.90;;;;;;4993379;28;20042;-59
2021/12/14 03:47:45;;;;;;;33.83;27.00;;;8.30;99.90;;;;;;4993457;28;20057;-59
2021/12/14 03:50:19;;;;;;;35.58;26.83;;;8.30;99.90;;;;;;5010569;28;20073;-59
2021/12/14 03:52:46;;;;;;;34.88;28.23;;;8.30;99.90;;;;;;4976690;28;20145;-59
2021/12/14 03:55:19;;;;;;;36.20;28.95;;;8.30;99.90;;;;;;4977809;28;20115;-59
2021/12/14 03:57:46;;;;;;;32.30;28.23;;;8.30;99.90;;;;;;4976894;28;20062;-59
2021/12/14 04:00:18;;;;;;;35.25;28.17;;;8.30;99.90;;;;;;4992796;28;20054;-60
2021/12/14 04:02:50;;;;;;;36.78;28.45;;;8.30;99.90;;;;;;4977507;28;20053;-59
2021/12/14 04:05:22;;;;;;;36.83;28.67;;;8.30;99.90;;;;;;4993434;28;20509;-60
2021/12/14 04:07:49;;;;;;;37.58;29.90;;;8.30;99.90;;;;;;4977178;28;20050;-45
2021/12/14 04:10:25;;;;;;;33.45;27.23;;;8.30;99.90;;;;;;4976678;28;20046;-43
2021/12/14 04:12:53;;;;;;;39.85;30.20;;;8.20;99.90;;;;;;4977083;28;20046;-44
2021/12/14 04:15:21;;;;;;;35.00;29.35;;;8.30;99.90;;;;;;4960419;28;20143;-48
2021/12/14 04:17:48;;;;;;;36.90;27.95;;;8.30;99.90;;;;;;4993095;28;20080;-59
2021/12/14 04:20:21;;;;;;;35.67;28.83;;;8.20;99.90;;;;;;4976569;28;20049;-59
2021/12/14 04:22:49;;;;;;;34.78;29.33;;;8.20;99.90;;;;;;4977827;28;20133;-44
2021/12/14 04:25:21;;;;;;;39.53;30.92;;;8.20;99.90;;;;;;4993880;28;20104;-60
2021/12/14 04:27:50;;;;;;;39.42;30.80;;;8.20;99.90;;;;;;4992548;28;20094;-59
2021/12/14 04:30:18;;;;;;;42.60;32.53;;;8.10;99.90;;;;;;5009652;28;20053;-59
2021/12/14 04:32:47;;;;;;;38.88;30.58;;;8.10;99.90;;;;;;4976667;28;20052;-59
2021/12/14 04:35:14;;;;;;;38.00;30.48;;;8.20;99.90;;;;;;4976766;28;20053;-60
2021/12/14 04:37:43;;;;;;;38.10;29.67;;;8.10;99.90;;;;;;4992866;28;20054;-44
2021/12/14 04:51:54;;;;;;;41.97;32.63;;;8.10;99.90;;;;;;4992629;28;20107;-43
2021/12/14 04:51:58;;;;;;;41.90;31.85;;;8.10;99.90;;;;;;4992518;28;20052;-44
2021/12/14 04:54:30;;;;;;;39.97;32.28;;;8.10;99.90;;;;;;4991953;28;20081;-45
2021/12/14 04:56:58;;;;;;;42.88;33.17;;;8.00;99.90;;;;;;4991959;28;20061;-45
2021/12/14 04:59:29;;;;;;;37.58;30.55;;;8.10;99.90;;;;;;4991697;28;20054;-47
2021/12/14 05:02:11;;;;;;;38.90;31.70;;;8.10;99.90;;;;;;4992024;28;20586;-44
2021/12/14 05:04:55;;;;;;;38.88;31.45;;;8.10;99.90;;;;;;4991847;28;20044;-43
2021/12/14 05:07:44;;;;;;;40.70;31.92;;;8.10;99.90;;;;;;4975975;28;20092;-44
2021/12/14 05:10:19;;;;;;;39.40;31.30;;;8.20;99.90;;;;;;4991745;28;20056;-44
2021/12/14 05:12:46;;;;;;;38.45;31.10;;;8.20;99.90;;;;;;4976512;28;20575;-43
2021/12/14 05:15:20;;;;;;;41.80;33.85;;;8.20;99.90;;;;;;4992430;28;20064;-43
2021/12/14 05:17:55;;;;;;;37.95;32.83;;;8.20;99.90;;;;;;4992797;28;20050;-42
2021/12/14 05:20:21;;;;;;;39.45;33.03;;;8.20;99.90;;;;;;4975915;28;20125;-43
2021/12/14 05:22:47;;;;;;;39.33;32.95;;;8.20;99.90;;;;;;5009611;28;20497;-43
2021/12/14 05:25:21;;;;;;;40.35;32.30;;;8.20;99.90;;;;;;4992297;28;20101;-46
2021/12/14 05:27:51;;;;;;;40.83;34.05;;;8.20;99.90;;;;;;4991964;28;20110;-47
2021/12/14 05:30:27;;;;;;;39.33;35.10;;;8.20;99.90;;;;;;4991748;28;20050;-47
2021/12/14 05:33:13;;;;;;;44.22;34.65;;;8.20;99.90;;;;;;4991828;28;20054;-47
2021/12/14 05:35:41;;;;;;;43.75;35.30;;;8.20;99.90;;;;;;4975698;28;20041;-46
2021/12/14 05:38:11;;;;;;;44.85;36.33;;;8.20;99.90;;;;;;4991827;28;20124;-59
2021/12/14 05:40:55;;;;;;;44.22;34.25;;;8.20;99.90;;;;;;4994891;28;20417;-59
2021/12/14 05:43:30;;;;;;;51.10;36.90;;;8.20;99.90;;;;;;4963210;28;20559;-59
2021/12/14 05:46:20;;;;;;;48.13;35.40;;;8.10;99.90;;;;;;4965896;28;20054;-59
2021/12/14 05:49:08;;;;;;;43.83;34.35;;;8.10;99.90;;;;;;4991877;28;20057;-59
2021/12/14 05:51:35;;;;;;;40.53;34.72;;;8.10;99.90;;;;;;4995106;28;20108;-59
2021/12/14 05:54:04;;;;;;;42.33;36.08;;;8.10;99.90;;;;;;4995067;28;20089;-59
2021/12/14 05:56:33;;;;;;;50.55;38.28;;;8.20;99.90;;;;;;4995820;28;20064;-59
2021/12/14 05:59:01;;;;;;;46.78;37.40;;;8.20;99.90;;;;;;4995054;28;20068;-59
2021/12/14 06:01:31;;;;;;;48.55;37.35;;;8.20;99.90;;;;;;5005800;28;20049;-59
2021/12/14 06:04:01;;;;;;;47.00;37.22;;;8.20;99.90;;;;;;5014880;28;20042;-59
2021/12/14 06:06:42;;;;;;;48.42;37.13;;;8.20;99.90;;;;;;5008107;28;20112;-59
2021/12/14 06:09:16;;;;;;;50.00;38.25;;;8.20;99.90;;;;;;4972758;28;20389;-59
2021/12/14 06:11:57;;;;;;;51.38;38.17;;;8.20;99.90;;;;;;4981825;28;20136;-59
2021/12/14 06:14:26;;;;;;;51.42;40.65;;;8.10;99.90;;;;;;5015255;28;20061;-59
2021/12/14 06:17:00;;;;;;;50.45;39.90;;;8.10;99.90;;;;;;5013855;28;20412;-59
2021/12/14 06:19:30;;;;;;;53.25;40.30;;;8.10;99.90;;;;;;4988180;28;20417;-60
2021/12/14 06:22:06;;;;;;;;;;;8.10;99.90;;;;;;4975956;28;20061;-59
2021/12/14 06:24:35;;;;;;;56.22;41.08;;;8.10;99.90;;;;;;4986914;28;19925;-43
2021/12/14 06:27:04;;;;;;;63.85;42.55;;;8.10;99.90;;;;;;4995660;28;20393;-59
2021/12/14 06:29:36;;;;;;;56.75;41.80;;;8.10;99.90;;;;;;4990491;28;20117;-44
2021/12/14 06:32:17;;;;;;;53.65;41.58;;;8.10;99.90;;;;;;4975539;28;20481;-45
2021/12/14 06:34:47;;;;;;;54.22;43.72;;;8.10;99.90;;;;;;4943345;28;20065;-45
2021/12/14 06:40:28;;;;;;;60.30;42.10;;;8.10;99.90;;;;;;4965930;28;20049;-47
2021/12/14 06:43:01;;;;;;;53.75;41.88;;;8.10;99.90;;;;;;4982894;28;20054;-43
2021/12/14 06:45:38;;;;;;;60.53;42.92;;;8.10;99.90;;;;;;4992693;28;20121;-44
2021/12/14 06:48:09;;;;;;;62.00;44.30;;;8.10;99.90;;;;;;4988210;28;20050;-46
2021/12/14 06:50:41;;;;;;;64.23;44.27;;;8.10;99.90;;;;;;4961909;28;20042;-59
2021/12/14 06:53:14;;;;;;;59.00;44.00;;;8.10;99.90;;;;;;4994600;28;20133;-59
2021/12/14 06:56:04;;;;;;;65.72;44.88;;;8.10;99.90;;;;;;4947508;28;20047;-59
2021/12/14 06:58:55;;;;;;;60.17;43.78;;;8.10;99.90;;;;;;5004455;28;20116;-59
2021/12/14 07:01:47;;;;;;;62.30;43.72;;;8.10;99.90;;;;;;4994209;28;20496;-60
2021/12/14 07:04:17;;;;;;;63.58;46.80;;;8.10;99.90;;;;;;4978171;28;20046;-43
2021/12/14 07:06:49;;;;;;;61.55;44.38;;;8.10;99.90;;;;;;4978263;28;20050;-59
2021/12/14 07:09:22;;;;;;;59.90;45.08;;;8.10;99.90;;;;;;4994109;28;20076;-43
2021/12/14 07:11:59;;;;;;;62.97;45.67;;;8.10;99.90;;;;;;5011461;28;20117;-44
2021/12/14 07:14:37;;;;;;;65.32;47.53;;;8.10;99.90;;;;;;5011782;28;20805;-44
2021/12/14 07:17:09;;;;;;;67.10;47.00;;;8.10;99.90;;;;;;4958818;28;20509;-46
2021/12/14 07:19:54;;;;;;;61.40;44.88;;;8.10;99.90;;;;;;5007625;28;20049;-44
2021/12/14 07:22:24;;;;;;;63.53;46.80;;;8.10;99.90;;;;;;5011242;28;20054;-45
2021/12/14 07:25:03;;;;;;;62.83;45.47;;;8.10;99.90;;;;;;5011950;28;20101;-45
2021/12/14 07:27:37;;;;;;;65.90;46.20;;;8.20;99.90;;;;;;4964119;28;20494;-49
2021/12/14 07:30:13;;;;;;;64.05;47.30;;;8.10;99.90;;;;;;4974891;28;20587;-47
2021/12/14 07:32:59;;;;;;;64.50;45.35;;;8.20;99.90;;;;;;4969076;28;20548;-47
2021/12/14 07:35:27;;;;;;;60.83;46.80;;;8.20;99.90;;;;;;5009466;28;20053;-46
2021/12/14 07:37:57;;;;;;;62.22;45.63;;;8.20;99.90;;;;;;5005427;28;20065;-46
2021/12/14 07:40:31;;;;;;;65.35;48.35;;;8.20;99.90;;;;;;4991849;28;20062;-44
2021/12/14 07:43:15;;;;;;;65.55;46.22;;;8.20;99.90;;;;;;4985534;28;20070;-46
2021/12/14 07:45:43;;;;;;;64.97;47.03;;;8.20;99.90;;;;;;4948110;28;20065;-49
2021/12/14 07:48:09;;;;;;;65.85;46.80;;;8.20;99.90;;;;;;5006247;28;20037;-44
2021/12/14 07:50:45;;;;;;;64.00;47.92;;;8.20;99.90;;;;;;5006518;28;20054;-43
2021/12/14 07:53:11;;;;;;;66.63;48.45;;;8.20;99.90;;;;;;4998311;28;20507;-43
2021/12/14 07:55:41;;;;;;;64.45;47.63;;;8.20;99.90;;;;;;5010550;28;20501;-44
2021/12/14 07:58:07;;;;;;;70.95;50.38;;;8.20;99.90;;;;;;4991536;28;20050;-43
2021/12/14 08:00:40;;;;;;;75.07;51.33;;;8.20;99.90;;;;;;4990430;28;20054;-45
2021/12/14 08:03:08;;;;;;;71.28;49.03;;;8.20;99.90;;;;;;5001668;28;20125;-43
2021/12/14 08:05:36;;;;;;;74.00;49.65;;;8.20;99.90;;;;;;5005107;28;20050;-42
2021/12/14 08:08:14;;;;;;;69.57;48.85;;;8.20;99.90;;;;;;5008920;28;20049;-44
2021/12/14 08:10:47;;;;;;;78.00;49.50;;;8.20;99.90;;;;;;5009779;28;20562;-47
2021/12/14 08:13:25;;;;;;;74.70;52.38;;;8.20;99.90;;;;;;4993923;28;20046;-45
2021/12/14 08:15:59;;;;;;;78.45;51.58;;;8.20;99.90;;;;;;5011128;28;20042;-43
2021/12/14 08:18:29;;;;;;;82.07;53.08;;;8.20;99.90;;;;;;4977188;28;20061;-43
2021/12/14 08:20:59;;;;;;;76.55;49.75;;;8.20;99.90;;;;;;4993099;28;20552;-59
2021/12/14 08:23:28;;;;;;;78.95;51.58;;;8.20;99.90;;;;;;4991928;28;20529;-59
2021/12/14 08:26:00;;;;;;;78.30;51.10;;;8.20;99.90;;;;;;5006905;28;20053;-59
2021/12/14 08:28:27;;;;;;;74.95;51.03;;;8.20;99.90;;;;;;5005029;28;20069;-59
2021/12/14 08:30:58;;;;;;;73.82;50.10;;;8.20;99.90;;;;;;4994174;28;20049;-59
2021/12/14 08:33:27;;;;;;;78.70;51.45;;;8.30;99.90;;;;;;4980771;28;20049;-59
2021/12/14 08:35:58;;;;;;;72.78;50.58;;;8.30;99.90;;;;;;5009835;28;20511;-59
2021/12/14 08:38:27;;;;;;;79.70;51.25;;;8.30;99.90;;;;;;4973400;28;20058;-59
2021/12/14 08:40:58;;;;;;;78.57;50.10;;;8.30;99.90;;;;;;5004276;28;20092;-59
2021/12/14 08:43:33;;;;;;;68.07;48.15;;;8.30;99.90;;;;;;4990175;28;20121;-59
2021/12/14 08:46:07;;;;;;;71.82;50.22;;;8.30;99.90;;;;;;4990432;28;20042;-59
2021/12/14 08:48:41;;;;;;;68.97;49.08;;;8.30;99.90;;;;;;4971253;28;20057;-59
2021/12/14 08:51:14;;;;;;;67.57;47.88;;;8.30;99.90;;;;;;5007683;28;20497;-58
2021/12/14 08:54:03;;;;;;;73.35;49.95;;;8.40;99.90;;;;;;4958883;28;20069;-59
2021/12/14 08:56:34;;;;;;;64.85;48.13;;;8.40;99.90;;;;;;4975718;28;20058;-59
2021/12/14 08:59:01;;;;;;;71.20;49.60;;;8.40;99.90;;;;;;4957827;28;20501;-59
2021/12/14 09:01:29;;;;;;;66.18;47.90;;;8.40;99.90;;;;;;4994243;28;20048;-59
2021/12/14 09:04:16;;;;;;;65.28;47.65;;;8.40;99.90;;;;;;4978039;28;20485;-58
2021/12/14 09:06:46;;;;;;;64.32;46.65;;;8.40;99.90;;;;;;4993671;28;20420;-59
2021/12/14 09:09:15;;;;;;;63.80;46.20;;;8.50;99.90;;;;;;5001532;28;20049;-59
2021/12/14 09:11:48;;;;;;;64.63;46.92;;;8.50;99.90;;;;;;4995886;28;20042;-58
2021/12/14 09:14:17;;;;;;;62.85;47.60;;;8.50;99.90;;;;;;4995382;28;20060;-59
2021/12/14 09:16:48;;;;;;;62.80;46.67;;;8.50;99.90;;;;;;4992048;28;20050;-58
2021/12/14 09:19:40;;;;;;;64.18;48.45;;;8.50;99.90;;;;;;4989169;28;20127;-59
2021/12/14 09:22:12;;;;;;;63.20;46.22;;;8.50;99.90;;;;;;4993650;28;20156;-59
2021/12/14 09:24:40;;;;;;;61.35;46.97;;;8.50;99.90;;;;;;4989642;28;20402;-59
2021/12/14 09:27:12;;;;;;;63.17;46.45;;;8.50;99.90;;;;;;4989584;28;20046;-56
2021/12/14 09:29:39;;;;;;;59.80;45.17;;;8.50;99.90;;;;;;4983195;28;20427;-59
2021/12/14 09:32:10;;;;;;;58.05;43.72;;;8.60;99.90;;;;;;4972263;28;20051;-58
2021/12/14 09:34:39;;;;;;;57.72;45.65;;;8.60;99.90;;;;;;4974327;28;20525;-60
2021/12/14 09:37:09;;;;;;;59.40;45.00;;;8.60;99.90;;;;;;4986232;28;20703;-59
2021/12/14 09:39:38;;;;;;;62.22;46.88;;;8.60;99.90;;;;;;5004619;28;20052;-59
2021/12/14 09:42:09;;;;;;;60.15;45.78;;;8.70;99.90;;;;;;4977607;28;20698;-58
2021/12/14 09:44:36;;;;;;;59.00;43.65;;;8.70;99.90;;;;;;4962802;28;20089;-58
2021/12/14 09:47:20;;;;;;;56.13;43.83;;;8.70;99.90;;;;;;4984199;28;20058;-58
2021/12/14 09:49:49;;;;;;;58.80;45.40;;;8.70;99.90;;;;;;4996277;28;20221;-58
2021/12/14 09:52:22;;;;;;;60.67;45.47;;;8.70;99.90;;;;;;4967302;28;20058;-58
2021/12/14 09:54:51;;;;;;;59.85;45.03;;;8.70;99.90;;;;;;4992018;28;20480;-58
2021/12/14 09:57:28;;;;;;;64.22;47.88;;;8.70;99.90;;;;;;5004337;28;20050;-58
2021/12/14 09:59:56;;;;;;;60.45;45.72;;;8.70;99.90;;;;;;4986957;28;20048;-58
2021/12/14 10:02:27;;;;;;;62.05;45.42;;;8.70;99.90;;;;;;4994440;28;20111;-42
2021/12/14 10:04:58;;;;;;;66.78;47.42;;;8.70;99.90;;;;;;4996606;28;20548;-45
2021/12/14 10:07:25;;;;;;;65.57;45.70;;;8.70;99.90;;;;;;4995063;28;20049;-45
2021/12/14 10:09:56;;;;;;;60.08;44.85;;;8.70;99.90;;;;;;5000832;28;20107;-59
2021/12/14 10:15:21;;;;;;;63.22;45.33;;;8.70;99.90;;;;;;4976881;28;20058;-58
2021/12/14 10:17:49;;;;;;;58.95;43.55;;;8.70;99.90;;;;;;4983433;28;20054;-58
2021/12/14 10:20:22;;;;;;;64.72;46.03;;;8.70;99.90;;;;;;4956835;28;20490;-44
2021/12/14 10:22:51;;;;;;;56.38;42.05;;;8.70;99.90;;;;;;4975021;28;20415;-43
2021/12/14 10:25:21;;;;;;;56.45;41.85;;;8.70;99.90;;;;;;4965898;28;20608;-48
2021/12/14 10:27:48;;;;;;;56.70;43.47;;;8.70;99.90;;;;;;4973167;28;20100;-43
2021/12/14 10:30:43;;;;;;;55.30;42.15;;;8.80;99.90;;;;;;4988967;28;20509;-44
2021/12/14 10:33:11;;;;;;;53.47;40.47;;;8.80;99.90;;;;;;4961317;28;20058;-47
2021/12/14 10:35:46;;;;;;;57.15;41.95;;;8.80;99.90;;;;;;4986917;28;20493;-44
2021/12/14 10:38:26;;;;;;;51.83;41.85;;;8.80;99.90;;;;;;4987871;28;20514;-46
2021/12/14 10:43:54;;;;;;;59.70;42.88;;;8.80;99.90;;;;;;4976835;28;20116;-43
2021/12/14 10:46:32;;;;;;;59.35;43.22;;;8.80;99.90;;;;;;4980455;28;20074;-44
2021/12/14 10:48:59;;;;;;;61.10;44.08;;;8.80;99.90;;;;;;4976436;28;20062;-46
2021/12/14 10:51:29;;;;;;;64.70;44.65;;;8.70;99.90;;;;;;5013670;28;20068;-44
2021/12/14 10:53:59;;;;;;;66.75;44.25;;;8.70;99.90;;;;;;5015259;28;20053;-46
2021/12/14 10:56:30;;;;;;;70.90;45.50;;;8.60;99.90;;;;;;5013618;28;20062;-42
2021/12/14 10:58:59;;;;;;;67.15;46.17;;;8.60;99.90;;;;;;4996441;28;20570;-44
2021/12/14 11:01:32;;;;;;;80.13;49.08;;;8.60;99.90;;;;;;5005996;28;20088;-42
2021/12/14 11:04:11;;;;;;;76.85;46.05;;;8.50;99.90;;;;;;4989138;28;20061;-44
2021/12/14 11:06:42;;;;;;;69.35;45.35;;;8.50;99.90;;;;;;4964214;28;20129;-43
2021/12/14 11:11:54;;;;;;;76.55;47.13;;;8.50;99.90;;;;;;4982190;28;20144;-43
2021/12/14 11:14:25;;;;;;;76.82;46.83;;;8.60;99.90;;;;;;5002072;28;20418;-43
2021/12/14 11:19:51;;;;;;;77.22;47.25;;;8.60;99.90;;;;;;4963560;28;20052;-46
2021/12/14 11:22:23;;;;;;;77.10;48.25;;;8.60;99.90;;;;;;4984308;28;20062;-46
2021/12/14 11:24:59;;;;;;;76.32;49.65;;;8.60;99.90;;;;;;4977173;28;20144;-43
2021/12/14 11:27:35;;;;;;;77.05;47.45;;;8.60;99.90;;;;;;4986908;28;20054;-44
2021/12/14 11:30:14;;;;;;;77.82;47.38;;;8.60;99.90;;;;;;4965236;28;20136;-43
2021/12/14 11:32:43;;;;;;;78.30;47.53;;;8.70;99.90;;;;;;5005979;28;20054;-44
2021/12/14 11:35:27;;;;;;;77.43;50.15;;;8.70;99.90;;;;;;5006958;28;20081;-43
2021/12/14 11:37:55;;;;;;;79.80;49.50;;;8.70;99.90;;;;;;4979424;28;20109;-43
2021/12/14 11:40:24;;;;;;;78.35;48.78;;;8.70;99.90;;;;;;4988494;28;20045;-44
2021/12/14 11:42:52;;;;;;;77.63;49.47;;;8.70;99.90;;;;;;5006067;28;20046;-45
2021/12/14 11:45:21;;;;;;;75.00;48.13;;;8.70;99.90;;;;;;4948692;28;20061;-43
2021/12/14 11:47:54;;;;;;;241.25;185.20;;;8.70;99.90;;;;;;4996215;28;20176;-44
2021/12/14 11:50:42;;;;;;;72.45;46.45;;;8.80;99.90;;;;;;4996458;28;20792;-45
2021/12/14 11:53:13;;;;;;;63.58;43.42;;;8.70;99.90;;;;;;5006324;28;20107;-45
2021/12/14 11:55:51;;;;;;;64.07;42.95;;;8.70;99.90;;;;;;5006187;28;20531;-43
2021/12/14 11:58:54;;;;;;;62.42;39.78;;;8.70;99.90;;;;;;4979987;28;20053;-46
2021/12/14 12:01:33;;;;;;;64.28;40.22;;;8.70;99.90;;;;;;4956784;28;20053;-46
2021/12/14 12:04:10;;;;;;;60.67;39.80;;;8.80;99.90;;;;;;4973034;28;20145;-45
2021/12/14 12:09:50;;;;;;;56.58;36.92;;;8.80;99.90;;;;;;4995440;28;20056;-44
2021/12/14 12:12:28;;;;;;;55.72;36.55;;;8.80;99.90;;;;;;4972211;28;20050;-44
2021/12/14 12:15:09;;;;;;;62.08;37.25;;;8.70;99.90;;;;;;5006344;28;20489;-44
2021/12/14 12:17:49;;;;;;;53.28;35.60;;;8.80;99.90;;;;;;4978692;28;20156;-44
2021/12/14 12:20:32;;;;;;;54.85;35.60;;;8.80;99.90;;;;;;5004675;28;20061;-56
2021/12/14 12:23:08;;;;;;;54.22;34.80;;;8.80;99.90;;;;;;4975929;28;20054;-46
2021/12/14 12:25:53;;;;;;;53.53;33.53;;;8.80;99.90;;;;;;5017310;28;20677;-45
2021/12/14 12:28:25;;;;;;;51.20;33.17;;;8.80;99.90;;;;;;4989867;28;20046;-44
2021/12/14 12:31:04;;;;;;;51.72;33.10;;;8.80;99.90;;;;;;5005137;28;20058;-46
2021/12/14 12:33:34;;;;;;;58.15;35.28;;;8.80;99.90;;;;;;4987528;28;20046;-45
2021/12/14 12:36:16;;;;;;;56.00;34.97;;;8.80;99.90;;;;;;4992905;28;20076;-47
2021/12/14 12:38:49;;;;;;;55.25;33.97;;;8.80;99.90;;;;;;4961029;28;20166;-47
2021/12/14 12:41:25;;;;;;;53.65;35.30;;;8.80;99.90;;;;;;4983345;28;20060;-44
2021/12/14 12:44:06;;;;;;;55.03;34.70;;;8.80;99.90;;;;;;4968624;28;20058;-45
2021/12/14 12:46:38;;;;;;;57.95;36.38;;;8.80;99.90;;;;;;4994436;28;20073;-43
2021/12/14 12:49:24;;;;;;;59.78;35.10;;;8.80;99.90;;;;;;4959284;28;20450;-44
2021/12/14 12:51:55;;;;;;;52.90;33.97;;;8.80;99.90;;;;;;4986035;28;20057;-47
2021/12/14 12:54:36;;;;;;;54.35;35.25;;;8.90;99.90;;;;;;4958333;28;20053;-45
2021/12/14 12:57:12;;;;;;;55.10;35.42;;;8.90;99.90;;;;;;4969955;28;20057;-45
2021/12/14 12:59:45;;;;;;;60.58;35.17;;;8.90;99.90;;;;;;4985626;28;20082;-46
2021/12/14 13:02:51;;;;;;;56.92;35.28;;;8.90;99.90;;;;;;4986849;28;20038;-44
2021/12/14 13:05:29;;;;;;;57.00;35.90;;;8.90;99.90;;;;;;5002461;28;20093;-44
2021/12/14 13:08:08;;;;;;;62.50;37.42;;;8.90;99.90;;;;;;4993984;28;20488;-44
2021/12/14 13:10:38;;;;;;;57.38;35.60;;;8.90;99.90;;;;;;4982749;28;20046;-42
2021/12/14 13:13:12;;;;;;;59.92;37.20;;;8.90;99.90;;;;;;4949531;28;20073;-59
2021/12/14 13:15:55;;;;;;;58.53;37.10;;;9.00;99.90;;;;;;4987278;28;20065;-58
2021/12/14 13:18:24;;;;;;;63.70;39.20;;;9.00;99.90;;;;;;5005064;28;20484;-58
2021/12/14 13:20:55;;;;;;;63.50;36.10;;;8.90;99.90;;;;;;4963288;28;20599;-58
2021/12/14 13:23:36;;;;;;;;;;;9.00;99.90;;;;;;4991661;28;20072;-58
2021/12/14 13:26:19;;;;;;;65.35;37.53;;;9.00;99.90;;;;;;4994673;28;19926;-58
2021/12/14 13:28:45;;;;;;;64.30;38.33;;;9.00;99.90;;;;;;4994099;28;20196;-57
2021/12/14 13:31:34;;;;;;;68.03;38.35;;;9.00;99.90;;;;;;4935912;28;20792;-59
2021/12/14 13:34:04;;;;;;;72.10;39.95;;;9.00;99.90;;;;;;4983105;28;20149;-58
2021/12/14 13:36:32;;;;;;;69.23;39.47;;;9.00;99.90;;;;;;4936247;28;20133;-59
2021/12/14 13:38:58;;;;;;;65.88;38.42;;;9.00;99.90;;;;;;4975310;28;20046;-57
2021/12/14 13:41:40;;;;;;;69.00;36.67;;;9.10;99.90;;;;;;4951098;28;20137;-59
2021/12/14 13:44:06;;;;;;;67.50;36.95;;;9.10;99.90;;;;;;4968352;28;20108;-59